createdAt,value
2023-05-20T00:03:47.829Z,60.73
2023-05-20T00:07:50.653Z,61.58
2023-05-20T00:11:54.767Z,60.23
2023-05-20T00:15:57.447Z,63.80
2023-05-20T00:20:00.720Z,66.10
2023-05-20T00:24:03.433Z,67.86
2023-05-20T00:28:07.722Z,66.25
2023-05-20T00:32:10.658Z,65.61
2023-05-20T00:36:13.430Z,67.27
2023-05-20T00:40:16.167Z,64.38
2023-05-20T00:44:23.993Z,69.34
2023-05-20T00:48:26.705Z,70.07
2023-05-20T00:52:31.240Z,65.91
2023-05-20T00:56:33.937Z,68.64
2023-05-20T01:00:38.266Z,68.87
2023-05-20T01:04:41.845Z,69.87
2023-05-20T01:08:44.464Z,70.52
2023-05-20T01:12:50.835Z,68.05
2023-05-20T01:16:55.200Z,63.94
2023-05-20T01:21:01.552Z,61.52
2023-05-20T01:25:06.396Z,67.74
2023-05-20T01:29:09.076Z,67.07
2023-05-20T01:33:12.773Z,67.08
2023-05-20T01:37:16.147Z,66.76
2023-05-20T01:41:20.023Z,68.79
2023-05-20T01:45:24.441Z,62.25
2023-05-20T01:49:27.110Z,63.44
2023-05-20T01:53:30.352Z,66.07
2023-05-20T01:57:34.411Z,67.87
2023-05-20T02:01:37.165Z,66.58
2023-05-20T02:05:39.945Z,68.96
2023-05-20T02:09:42.691Z,71.96
2023-05-20T02:13:46.737Z,68.16
2023-05-20T02:17:49.449Z,66.77
2023-05-20T02:21:52.537Z,68.45
2023-05-20T02:25:55.263Z,69.39
2023-05-20T02:29:59.501Z,72.04
2023-05-20T02:34:02.386Z,70.92
2023-05-20T02:38:05.169Z,68.31
2023-05-20T02:42:07.842Z,69.52
2023-05-20T02:46:12.067Z,74.56
2023-05-20T02:50:14.751Z,74.00
2023-05-20T02:54:17.524Z,70.45
2023-05-20T02:58:26.444Z,73.05
2023-05-20T03:02:30.647Z,75.00
2023-05-20T03:06:33.935Z,65.73
2023-05-20T03:10:36.638Z,71.46
2023-05-20T03:14:39.297Z,72.04
2023-05-20T03:18:43.603Z,70.33
2023-05-20T03:22:46.242Z,69.50
2023-05-20T03:26:49.070Z,69.16
2023-05-20T03:30:51.802Z,68.84
2023-05-20T03:34:58.159Z,69.34
2023-05-20T03:39:01.776Z,72.47
2023-05-20T03:43:04.417Z,72.26
2023-05-20T03:47:07.140Z,72.71
2023-05-20T03:51:11.348Z,70.09
2023-05-20T03:55:14.020Z,77.47
2023-05-20T03:59:17.891Z,75.33
2023-05-20T04:03:20.632Z,75.48
2023-05-20T04:07:24.733Z,74.04
2023-05-20T04:11:27.492Z,79.67
2023-05-20T04:15:30.804Z,77.29
2023-05-20T04:19:34.790Z,78.74
2023-05-20T04:23:38.836Z,78.45
2023-05-20T04:27:41.550Z,75.24
2023-05-20T04:31:45.559Z,74.53
2023-05-20T04:35:48.567Z,76.42
2023-05-20T04:39:52.605Z,80.72
2023-05-20T04:43:59.778Z,77.81
2023-05-20T04:48:02.546Z,79.60
2023-05-20T04:52:05.815Z,79.20
2023-05-20T04:56:09.966Z,77.76
2023-05-20T05:00:13.663Z,78.78
2023-05-20T05:04:16.401Z,75.62
2023-05-20T05:08:19.061Z,76.06
2023-05-20T05:12:23.234Z,76.08
2023-05-20T05:16:26.093Z,71.98
2023-05-20T05:20:28.897Z,66.47
2023-05-20T05:24:31.638Z,68.22
2023-05-20T05:28:35.669Z,69.78
2023-05-20T05:32:38.603Z,69.84
2023-05-20T05:36:41.865Z,72.16
2023-05-20T05:40:44.532Z,72.70
2023-05-20T05:44:49.453Z,67.65
2023-05-20T05:48:52.314Z,66.18
2023-05-20T05:52:55.114Z,63.99
2023-05-20T05:56:57.862Z,62.73
2023-05-20T06:01:02.030Z,64.43
2023-05-20T06:05:05.064Z,64.46
2023-05-20T06:09:07.749Z,64.26
2023-05-20T06:13:10.473Z,63.03
2023-05-20T06:17:14.560Z,67.58
2023-05-20T06:21:17.706Z,70.33
2023-05-20T06:25:20.389Z,64.66
2023-05-20T06:29:23.155Z,64.26
2023-05-20T06:33:28.572Z,65.25
2023-05-20T06:37:31.723Z,63.77
2023-05-20T06:41:34.438Z,64.42
2023-05-20T06:45:37.147Z,67.68
2023-05-20T06:49:41.152Z,64.06
2023-05-20T06:53:43.812Z,67.74
2023-05-20T06:57:46.481Z,68.29
2023-05-20T07:01:49.213Z,68.76
2023-05-20T07:05:53.981Z,61.49
2023-05-20T07:09:56.643Z,64.42
2023-05-20T07:13:59.334Z,65.10
2023-05-20T07:18:02.148Z,63.45
2023-05-20T07:22:06.538Z,60.48
2023-05-20T07:26:09.221Z,61.87
2023-05-20T07:30:12.143Z,66.78
2023-05-20T07:34:14.807Z,66.11
2023-05-20T07:38:18.811Z,69.34
2023-05-20T07:42:21.546Z,67.09
2023-05-20T07:46:24.330Z,68.41
2023-05-20T07:50:27.153Z,64.03
2023-05-20T07:54:31.208Z,64.56
2023-05-20T07:58:33.894Z,63.45
2023-05-20T08:02:36.683Z,63.13
2023-05-20T08:06:39.818Z,63.38
2023-05-20T08:10:43.895Z,64.54
2023-05-20T08:14:46.556Z,63.13
2023-05-20T08:18:49.316Z,65.08
2023-05-20T08:22:52.030Z,65.72
2023-05-20T08:26:56.026Z,63.82
2023-05-20T08:30:59.366Z,61.51
2023-05-20T08:35:02.742Z,60.22
2023-05-20T08:39:05.391Z,63.90
2023-05-20T08:43:09.510Z,63.30
2023-05-20T08:47:12.362Z,66.34
2023-05-20T08:51:14.939Z,61.22
2023-05-20T08:55:22.980Z,69.27
2023-05-20T08:59:27.473Z,66.32
2023-05-20T09:03:30.568Z,64.26
2023-05-20T09:07:33.599Z,64.51
2023-05-20T09:11:36.482Z,63.56
2023-05-20T09:15:40.885Z,68.25
2023-05-20T09:19:43.599Z,61.29
2023-05-20T09:23:49.159Z,60.03
2023-05-20T09:27:51.838Z,60.91
2023-05-20T09:31:56.833Z,61.33
2023-05-20T09:36:04.671Z,63.05
2023-05-20T09:40:10.184Z,56.33
2023-05-20T09:44:13.769Z,61.28
2023-05-20T09:48:17.831Z,61.73
2023-05-20T09:52:21.640Z,56.71
2023-05-20T09:56:25.189Z,56.86
2023-05-20T10:00:27.972Z,61.76
2023-05-20T10:04:32.502Z,64.41
2023-05-20T10:08:55.768Z,63.01
2023-05-20T10:13:09.238Z,59.00
2023-05-20T10:17:16.959Z,61.32
2023-05-20T10:21:24.534Z,62.23
2023-05-20T10:25:29.293Z,60.25
2023-05-20T10:29:43.656Z,62.17
2023-05-20T10:33:47.461Z,63.72
2023-05-20T10:37:51.518Z,64.72
2023-05-20T10:41:54.298Z,58.39
2023-05-20T10:45:57.671Z,58.79
2023-05-20T10:50:02.090Z,63.40
2023-05-20T10:54:06.461Z,62.26
2023-05-20T10:58:09.149Z,55.93
2023-05-20T11:02:12.485Z,59.80
2023-05-20T11:06:17.574Z,60.50
2023-05-20T11:10:24.001Z,66.92
2023-05-20T11:14:26.680Z,61.78
2023-05-20T11:18:32.055Z,58.57
2023-05-20T11:22:34.722Z,56.63
2023-05-20T11:26:39.381Z,54.42
2023-05-20T11:30:43.946Z,55.84
2023-05-20T11:34:46.791Z,58.44
2023-05-20T11:38:49.475Z,57.68
2023-05-20T11:42:56.257Z,57.94
2023-05-20T11:47:01.409Z,60.36
2023-05-20T11:51:04.314Z,59.53
2023-05-20T11:55:11.852Z,54.52
2023-05-20T11:59:18.578Z,55.68
2023-05-20T12:03:21.850Z,53.97
2023-05-20T12:07:24.798Z,55.00
2023-05-20T12:11:27.342Z,60.47
2023-05-20T12:15:31.416Z,59.27
2023-05-20T12:19:36.041Z,63.43
2023-05-20T12:23:39.608Z,58.35
2023-05-20T12:27:42.377Z,56.84
2023-05-20T12:31:46.462Z,53.51
2023-05-20T12:35:49.241Z,57.83
2023-05-20T12:39:52.141Z,57.38
2023-05-20T12:43:55.261Z,54.21
2023-05-20T12:47:59.623Z,55.14
2023-05-20T12:52:05.761Z,54.29
2023-05-20T12:56:11.570Z,52.45
2023-05-20T13:00:14.777Z,57.58
2023-05-20T13:04:18.875Z,60.03
2023-05-20T13:08:21.537Z,53.44
2023-05-20T13:12:24.337Z,54.92
2023-05-20T13:16:27.278Z,57.00
2023-05-20T13:20:32.084Z,53.60
2023-05-20T13:24:35.062Z,51.69
2023-05-20T13:28:37.755Z,57.74
2023-05-20T13:32:40.520Z,54.88
2023-05-20T13:36:45.329Z,54.22
2023-05-20T13:40:48.971Z,52.87
2023-05-20T13:44:51.699Z,58.06
2023-05-20T13:48:54.437Z,56.27
2023-05-20T13:52:58.482Z,52.93
2023-05-20T13:57:01.708Z,57.06
2023-05-20T14:01:04.953Z,57.50
2023-05-20T14:05:08.774Z,56.37
2023-05-20T14:09:12.817Z,60.32
2023-05-20T14:13:15.520Z,55.01
2023-05-20T14:17:19.075Z,51.69
2023-05-20T14:21:21.732Z,54.14
2023-05-20T14:25:25.743Z,58.64
2023-05-20T14:29:28.451Z,56.04
2023-05-20T14:33:31.076Z,55.22
2023-05-20T14:37:33.794Z,59.62
2023-05-20T14:41:37.806Z,58.34
2023-05-20T14:45:41.533Z,61.87
2023-05-20T14:49:44.611Z,65.00
2023-05-20T14:53:47.272Z,57.49
2023-05-20T14:57:51.275Z,59.51
2023-05-20T15:01:54.370Z,65.23
2023-05-20T15:05:57.046Z,63.50
2023-05-20T15:09:59.800Z,57.46
2023-05-20T15:14:03.823Z,59.74
2023-05-20T15:18:06.605Z,62.94
2023-05-20T15:22:09.358Z,55.97
2023-05-20T15:26:12.930Z,57.36
2023-05-20T15:30:17.318Z,58.89
2023-05-20T15:34:20.204Z,59.43
2023-05-20T15:38:22.933Z,60.25
2023-05-20T15:42:25.567Z,57.19
2023-05-20T15:46:29.858Z,62.16
2023-05-20T15:50:32.657Z,62.01
2023-05-20T15:54:35.549Z,58.18
2023-05-20T15:58:38.200Z,59.56
2023-05-20T16:02:43.398Z,61.20
2023-05-20T16:06:46.211Z,60.19
2023-05-20T16:10:48.885Z,64.28
2023-05-20T16:14:51.677Z,60.54
2023-05-20T16:18:55.921Z,62.81
2023-05-20T16:22:58.818Z,63.48
2023-05-20T16:27:01.414Z,64.03
2023-05-20T16:31:04.359Z,64.78
2023-05-20T16:35:09.741Z,66.17
2023-05-20T16:39:12.834Z,63.67
2023-05-20T16:43:15.562Z,63.65
2023-05-20T16:47:18.411Z,61.59
2023-05-20T16:51:22.845Z,63.44
2023-05-20T16:55:25.616Z,62.35
2023-05-20T16:59:30.283Z,63.25
2023-05-20T17:03:33.003Z,64.40
2023-05-20T17:07:37.126Z,62.98
2023-05-20T17:11:39.778Z,63.24
2023-05-20T17:15:42.496Z,59.54
2023-05-20T17:19:45.292Z,63.35
2023-05-20T17:23:49.406Z,63.38
2023-05-20T17:27:52.128Z,66.75
2023-05-20T17:31:54.806Z,63.14
2023-05-20T17:35:57.554Z,63.44
2023-05-20T17:40:01.711Z,61.70
2023-05-20T17:44:04.738Z,66.21
2023-05-20T17:48:08.862Z,66.49
2023-05-20T17:52:13.513Z,67.69
2023-05-20T17:56:17.795Z,67.29
2023-05-20T18:00:21.722Z,65.93
2023-05-20T18:04:24.440Z,66.15
2023-05-20T18:08:27.085Z,68.75
2023-05-20T18:12:31.131Z,64.62
2023-05-20T18:16:33.865Z,68.27
2023-05-20T18:20:36.890Z,64.17
2023-05-20T18:24:39.677Z,69.45
2023-05-20T18:28:43.831Z,67.54
2023-05-20T18:32:46.599Z,65.72
2023-05-20T18:36:49.520Z,69.54
2023-05-20T18:40:52.248Z,67.07
2023-05-20T18:44:56.283Z,70.99
2023-05-20T18:48:58.996Z,69.43
2023-05-20T18:53:01.718Z,65.53
2023-05-20T18:57:05.271Z,67.17
2023-05-20T19:01:09.319Z,68.57
2023-05-20T19:05:13.626Z,71.12
2023-05-20T19:09:16.507Z,68.58
2023-05-20T19:13:19.239Z,72.27
2023-05-20T19:17:23.208Z,72.82
2023-05-20T19:21:26.058Z,72.41
2023-05-20T19:25:28.778Z,73.21
2023-05-20T19:29:31.617Z,74.11
2023-05-20T19:33:35.658Z,74.75
2023-05-20T19:37:38.390Z,72.38
2023-05-20T19:41:41.058Z,71.32
2023-05-20T19:45:44.024Z,77.81
2023-05-20T19:49:48.064Z,75.96
2023-05-20T19:53:51.072Z,75.22
2023-05-20T19:57:54.066Z,75.78
2023-05-20T20:01:56.795Z,70.99
2023-05-20T20:06:01.050Z,77.61
2023-05-20T20:10:03.911Z,79.24
2023-05-20T20:14:06.573Z,78.27
2023-05-20T20:18:09.311Z,76.74
2023-05-20T20:22:13.560Z,79.46
2023-05-20T20:26:16.220Z,81.69
2023-05-20T20:30:21.428Z,80.78
2023-05-20T20:34:24.236Z,81.20
2023-05-20T20:38:28.581Z,75.89
2023-05-20T20:42:32.296Z,79.37
2023-05-20T20:46:37.500Z,81.38
2023-05-20T20:50:40.207Z,80.68
2023-05-20T20:54:44.204Z,79.74
2023-05-20T20:58:46.855Z,77.09
2023-05-20T21:02:49.613Z,80.96
2023-05-20T21:06:52.290Z,80.02
2023-05-20T21:10:59.108Z,83.54
2023-05-20T21:15:02.002Z,81.73
2023-05-20T21:19:04.754Z,82.49
2023-05-20T21:23:07.426Z,81.60
2023-05-20T21:27:11.446Z,83.67
2023-05-20T21:31:14.248Z,84.22
2023-05-20T21:35:17.217Z,81.67
2023-05-20T21:39:19.830Z,83.00
2023-05-20T21:43:23.851Z,83.63
2023-05-20T21:47:26.565Z,84.51
2023-05-20T21:51:29.219Z,85.07
2023-05-20T21:55:31.895Z,83.09
2023-05-20T21:59:35.969Z,84.16
2023-05-20T22:03:39.836Z,85.44
2023-05-20T22:07:44.303Z,84.04
2023-05-20T22:11:47.936Z,85.87
2023-05-20T22:15:52.696Z,85.09
2023-05-20T22:19:55.371Z,89.14
2023-05-20T22:23:57.989Z,86.67
2023-05-20T22:28:01.403Z,83.92
2023-05-20T22:32:06.384Z,86.42
2023-05-20T22:36:09.427Z,88.10
2023-05-20T22:40:12.650Z,87.71
2023-05-20T22:44:15.174Z,84.84
2023-05-20T22:48:22.894Z,87.44
2023-05-20T22:52:25.934Z,87.78
2023-05-20T22:56:29.632Z,86.59
2023-05-20T23:00:32.304Z,90.15
2023-05-20T23:04:36.449Z,87.83
2023-05-20T23:08:39.186Z,86.80
2023-05-20T23:12:41.821Z,89.22
2023-05-20T23:16:44.504Z,86.27
2023-05-20T23:20:48.678Z,88.33
2023-05-20T23:24:51.568Z,91.34
2023-05-20T23:28:54.322Z,89.92
2023-05-20T23:32:57.835Z,91.52
2023-05-20T23:37:01.891Z,90.41
2023-05-20T23:41:04.800Z,89.59
2023-05-20T23:45:08.280Z,90.72
2023-05-20T23:49:12.219Z,88.55
2023-05-20T23:53:17.035Z,91.21
2023-05-20T23:57:19.956Z,89.04
